Time,TemperatureF,DewpointF,PressureIn,WindDirection,WindDirectionDegrees,WindSpeedMPH,WindSpeedGustMPH,Humidity,HourlyPrecipIn,Conditions,Clouds,dailyrainin,SolarRadiationWatts/m^2,SoftwareType,DateUTC
2013-02-16 00:02:00,44.9,42.0,30.24,SW,215,0.0,0.0,88,0.00,,,0.00,0,weatherlink.com 1.10,2013-02-16 08:02:00,
2013-02-16 00:17:00,45.1,42.0,30.24,SW,215,0.0,0.0,89,0.00,,,0.00,0,weatherlink.com 1.10,2013-02-16 08:17:00,
2013-02-16 00:32:00,45.0,42.0,30.23,SW,215,0.0,0.0,89,0.00,,,0.00,0,weatherlink.com 1.10,2013-02-16 08:32:00,
2013-02-16 00:47:00,44.8,42.0,30.23,SW,215,0.0,0.0,90,0.00,,,0.00,0,weatherlink.com 1.10,2013-02-16 08:47:00,
2013-02-16 01:02:00,44.4,42.0,30.24,SW,215,0.0,0.0,90,0.00,,,0.00,0,weatherlink.com 1.10,2013-02-16 09:02:00,
2013-02-16 01:17:00,43.7,41.0,30.24,SW,215,0.0,0.0,90,0.00,,,0.00,0,weatherlink.com 1.10,2013-02-16 09:17:00,
2013-02-16 01:32:00,43.2,41.0,30.24,SW,215,0.0,0.0,91,0.00,,,0.00,0,weatherlink.com 1.10,2013-02-16 09:32:00,
2013-02-16 01:47:00,42.9,41.0,30.24,SW,215,0.0,0.0,92,0.00,,,0.00,0,weatherlink.com 1.10,2013-02-16 09:47:00,
2013-02-16 02:02:00,42.8,41.0,30.24,SW,215,0.0,0.0,92,0.00,,,0.00,0,weatherlink.com 1.10,2013-02-16 10:02:00,
2013-02-16 02:17:00,42.2,40.0,30.23,SW,215,0.0,0.0,92,0.00,,,0.00,0,weatherlink.com 1.10,2013-02-16 10:17:00,
2013-02-16 02:32:00,42.7,41.0,30.24,SW,215,0.0,2.0,93,0.00,,,0.00,0,weatherlink.com 1.10,2013-02-16 10:32:00,
2013-02-16 02:47:00,42.2,40.0,30.23,SW,215,0.0,0.0,93,0.00,,,0.00,0,weatherlink.com 1.10,2013-02-16 10:47:00,
2013-02-16 03:02:00,41.7,40.0,30.22,SW,215,0.0,0.0,93,0.00,,,0.00,0,weatherlink.com 1.10,2013-02-16 11:02:00,
2013-02-16 03:17:00,42.4,41.0,30.21,SW,215,0.0,1.0,93,0.00,,,0.00,0,weatherlink.com 1.10,2013-02-16 11:17:00,
2013-02-16 03:32:00,41.4,40.0,30.21,SW,215,0.0,0.0,93,0.00,,,0.00,0,weatherlink.com 1.10,2013-02-16 11:32:00,
2013-02-16 03:47:00,41.7,40.0,30.21,SW,215,0.0,0.0,93,0.00,,,0.00,0,weatherlink.com 1.10,2013-02-16 11:47:00,
2013-02-16 04:03:00,41.3,40.0,30.20,SW,215,0.0,0.0,93,0.00,,,0.00,0,weatherlink.com 1.10,2013-02-16 12:03:00,
2013-02-16 04:17:00,41.3,40.0,30.20,SW,215,0.0,0.0,94,0.00,,,0.00,0,weatherlink.com 1.10,2013-02-16 12:17:00,
2013-02-16 04:32:00,41.5,40.0,30.20,SW,215,0.0,0.0,94,0.00,,,0.00,0,weatherlink.com 1.10,2013-02-16 12:32:00,
2013-02-16 04:47:00,41.0,39.0,30.20,SW,215,0.0,0.0,94,0.00,,,0.00,0,weatherlink.com 1.10,2013-02-16 12:47:00,
2013-02-16 05:02:00,40.7,39.0,30.20,SW,215,0.0,0.0,94,0.00,,,0.00,0,weatherlink.com 1.10,2013-02-16 13:02:00,
2013-02-16 05:17:00,40.7,39.0,30.20,SW,215,0.0,0.0,94,0.00,,,0.00,0,weatherlink.com 1.10,2013-02-16 13:17:00,
2013-02-16 05:32:00,40.5,39.0,30.20,SW,215,0.0,0.0,94,0.00,,,0.00,0,weatherlink.com 1.10,2013-02-16 13:32:00,
2013-02-16 05:47:00,39.7,38.0,30.19,SW,215,0.0,0.0,94,0.00,,,0.00,0,weatherlink.com 1.10,2013-02-16 13:47:00,
2013-02-16 06:02:00,40.2,39.0,30.19,SW,215,0.0,0.0,94,0.00,,,0.00,0,weatherlink.com 1.10,2013-02-16 14:02:00,
2013-02-16 06:17:00,40.9,39.0,30.19,SW,215,0.0,1.0,94,0.00,,,0.00,0,weatherlink.com 1.10,2013-02-16 14:17:00,
2013-02-16 06:32:00,39.9,38.0,30.19,SW,215,0.0,0.0,94,0.00,,,0.00,0,weatherlink.com 1.10,2013-02-16 14:32:00,
2013-02-16 06:47:00,39.4,38.0,30.19,SW,215,0.0,0.0,94,0.00,,,0.00,0,weatherlink.com 1.10,2013-02-16 14:47:00,
2013-02-16 07:02:00,39.5,38.0,30.19,SW,215,0.0,0.0,94,0.00,,,0.00,0,weatherlink.com 1.10,2013-02-16 15:02:00,
2013-02-16 07:17:00,39.3,38.0,30.20,SW,215,0.0,0.0,94,0.00,,,0.00,14,weatherlink.com 1.10,2013-02-16 15:17:00,
2013-02-16 07:33:00,40.1,39.0,30.20,WNW,286,0.0,0.0,95,0.00,,,0.00,30,weatherlink.com 1.10,2013-02-16 15:33:00,
2013-02-16 07:48:00,40.6,39.0,30.20,WNW,286,0.0,0.0,95,0.00,,,0.00,47,weatherlink.com 1.10,2013-02-16 15:48:00,
2013-02-16 08:02:00,41.3,40.0,30.20,WNW,286,0.0,0.0,95,0.00,,,0.00,70,weatherlink.com 1.10,2013-02-16 16:02:00,
2013-02-16 08:18:00,41.7,40.0,30.20,WNW,286,0.0,0.0,95,0.00,,,0.00,98,weatherlink.com 1.10,2013-02-16 16:18:00,
2013-02-16 08:33:00,43.2,42.0,30.21,WNW,286,0.0,0.0,95,0.00,,,0.00,125,weatherlink.com 1.10,2013-02-16 16:33:00,
2013-02-16 08:48:00,45.1,44.0,30.20,WNW,286,0.0,0.0,95,0.00,,,0.00,135,weatherlink.com 1.10,2013-02-16 16:48:00,
2013-02-16 09:03:00,46.7,45.0,30.20,WNW,286,0.0,0.0,95,0.00,,,0.00,148,weatherlink.com 1.10,2013-02-16 17:03:00,
2013-02-16 09:18:00,47.9,46.0,30.20,WNW,286,0.0,0.0,94,0.00,,,0.00,156,weatherlink.com 1.10,2013-02-16 17:18:00,
2013-02-16 09:34:00,49.5,47.0,30.20,WNW,286,0.0,0.0,90,0.00,,,0.00,181,weatherlink.com 1.10,2013-02-16 17:34:00,
2013-02-16 09:48:00,50.5,45.0,30.20,WNW,286,0.0,0.0,81,0.00,,,0.00,276,weatherlink.com 1.10,2013-02-16 17:48:00,
2013-02-16 10:03:00,51.0,45.0,30.19,NE,50,2.0,3.0,81,0.00,,,0.00,292,weatherlink.com 1.10,2013-02-16 18:03:00,
2013-02-16 10:18:00,52.6,47.0,30.19,NE,49,0.0,4.0,80,0.00,,,0.00,392,weatherlink.com 1.10,2013-02-16 18:18:00,
2013-02-16 10:33:00,54.8,49.0,30.19,NE,38,0.0,4.0,80,0.00,,,0.00,557,weatherlink.com 1.10,2013-02-16 18:33:00,
2013-02-16 10:48:00,56.1,49.0,30.19,NE,36,0.0,4.0,76,0.00,,,0.00,357,weatherlink.com 1.10,2013-02-16 18:48:00,
2013-02-16 11:03:00,58.1,48.0,30.19,NE,36,0.0,1.0,68,0.00,,,0.00,621,weatherlink.com 1.10,2013-02-16 19:03:00,
2013-02-16 11:19:00,59.5,48.0,30.18,NNE,25,0.0,4.0,66,0.00,,,0.00,686,weatherlink.com 1.10,2013-02-16 19:19:00,
2013-02-16 11:33:00,60.9,49.0,30.18,NE,46,0.0,3.0,64,0.00,,,0.00,624,weatherlink.com 1.10,2013-02-16 19:33:00,
2013-02-16 11:49:00,61.9,48.0,30.17,NE,46,0.0,1.0,60,0.00,,,0.00,708,weatherlink.com 1.10,2013-02-16 19:49:00,
2013-02-16 12:04:00,62.6,48.0,30.16,NE,47,0.0,3.0,60,0.00,,,0.00,570,weatherlink.com 1.10,2013-02-16 20:04:00,
2013-02-16 12:19:00,64.4,49.0,30.15,NE,47,0.0,2.0,57,0.00,,,0.00,580,weatherlink.com 1.10,2013-02-16 20:19:00,
2013-02-16 12:34:00,66.2,50.0,30.14,NE,50,0.0,2.0,56,0.00,,,0.00,763,weatherlink.com 1.10,2013-02-16 20:34:00,
2013-02-16 12:49:00,67.8,49.0,30.14,NE,50,0.0,2.0,51,0.00,,,0.00,700,weatherlink.com 1.10,2013-02-16 20:49:00,
2013-02-16 13:04:00,68.1,48.0,30.13,NE,48,4.0,4.0,49,0.00,,,0.00,606,weatherlink.com 1.10,2013-02-16 21:04:00,
2013-02-16 13:19:00,69.1,49.0,30.12,NNE,27,5.0,8.0,49,0.00,,,0.00,715,weatherlink.com 1.10,2013-02-16 21:19:00,
2013-02-16 13:34:00,69.9,49.0,30.11,SE,145,0.0,5.0,48,0.00,,,0.00,591,weatherlink.com 1.10,2013-02-16 21:34:00,
2013-02-16 13:49:00,69.8,50.0,30.10,South,176,6.0,7.0,50,0.00,,,0.00,552,weatherlink.com 1.10,2013-02-16 21:49:00,
2013-02-16 14:04:00,70.0,50.0,30.09,SE,142,2.0,7.0,50,0.00,,,0.00,605,weatherlink.com 1.10,2013-02-16 22:04:00,
2013-02-16 14:19:00,70.2,53.0,30.09,SW,229,0.0,6.0,55,0.00,,,0.00,538,weatherlink.com 1.10,2013-02-16 22:19:00,
2013-02-16 14:34:00,69.8,50.0,30.08,South,173,2.0,6.0,49,0.00,,,0.00,568,weatherlink.com 1.10,2013-02-16 22:34:00,
2013-02-16 14:49:00,70.6,49.0,30.08,ENE,74,0.0,8.0,47,0.00,,,0.00,529,weatherlink.com 1.10,2013-02-16 22:49:00,
2013-02-16 15:04:00,70.4,47.0,30.07,SSW,209,4.0,9.0,43,0.00,,,0.00,445,weatherlink.com 1.10,2013-02-16 23:04:00,
2013-02-16 15:20:00,70.8,46.0,30.07,WSW,252,0.0,6.0,42,0.00,,,0.00,446,weatherlink.com 1.10,2013-02-16 23:20:00,
2013-02-16 15:34:00,71.2,44.0,30.07,West,259,5.0,6.0,38,0.00,,,0.00,413,weatherlink.com 1.10,2013-02-16 23:34:00,
2013-02-16 15:49:00,70.0,44.0,30.07,SSW,213,3.0,7.0,40,0.00,,,0.00,367,weatherlink.com 1.10,2013-02-16 23:49:00,
2013-02-16 16:04:00,70.1,44.0,30.06,SW,217,4.0,7.0,39,0.00,,,0.00,316,weatherlink.com 1.10,2013-02-17 00:04:00,
2013-02-16 16:19:00,69.5,43.0,30.06,SW,225,4.0,7.0,39,0.00,,,0.00,267,weatherlink.com 1.10,2013-02-17 00:19:00,
2013-02-16 16:34:00,68.5,44.0,30.06,South,184,2.0,6.0,42,0.00,,,0.00,209,weatherlink.com 1.10,2013-02-17 00:34:00,
2013-02-16 16:49:00,67.7,43.0,30.05,SSW,199,1.0,5.0,41,0.00,,,0.00,149,weatherlink.com 1.10,2013-02-17 00:49:00,
2013-02-16 17:05:00,67.3,42.0,30.05,West,259,0.0,4.0,40,0.00,,,0.00,97,weatherlink.com 1.10,2013-02-17 01:05:00,
2013-02-16 17:19:00,65.7,45.0,30.05,SSW,201,0.0,3.0,47,0.00,,,0.00,49,weatherlink.com 1.10,2013-02-17 01:19:00,
2013-02-16 17:35:00,63.1,46.0,30.05,SSW,201,0.0,3.0,54,0.00,,,0.00,14,weatherlink.com 1.10,2013-02-17 01:35:00,
2013-02-16 17:50:00,60.2,46.0,30.05,SSW,201,0.0,0.0,59,0.00,,,0.00,5,weatherlink.com 1.10,2013-02-17 01:50:00,
2013-02-16 18:04:00,58.2,45.0,30.05,SSW,201,0.0,0.0,63,0.00,,,0.00,0,weatherlink.com 1.10,2013-02-17 02:04:00,
2013-02-16 18:19:00,56.8,45.0,30.05,SSW,201,0.0,1.0,65,0.00,,,0.00,0,weatherlink.com 1.10,2013-02-17 02:19:00,
2013-02-16 18:34:00,55.3,45.0,30.05,SSW,201,0.0,0.0,69,0.00,,,0.00,0,weatherlink.com 1.10,2013-02-17 02:34:00,
2013-02-16 18:49:00,54.1,45.0,30.05,SSW,201,0.0,0.0,71,0.00,,,0.00,0,weatherlink.com 1.10,2013-02-17 02:49:00,
2013-02-16 19:04:00,52.5,45.0,30.06,SSW,201,0.0,0.0,76,0.00,,,0.00,0,weatherlink.com 1.10,2013-02-17 03:04:00,
2013-02-16 19:20:00,51.3,46.0,30.06,SSW,201,0.0,0.0,81,0.00,,,0.00,0,weatherlink.com 1.10,2013-02-17 03:20:00,
2013-02-16 19:34:00,50.5,46.0,30.06,SSW,201,0.0,1.0,83,0.00,,,0.00,0,weatherlink.com 1.10,2013-02-17 03:34:00,
2013-02-16 19:50:00,50.0,45.0,30.05,SSW,201,0.0,1.0,83,0.00,,,0.00,0,weatherlink.com 1.10,2013-02-17 03:50:00,
2013-02-16 20:04:00,48.3,44.0,30.05,SSW,201,0.0,0.0,85,0.00,,,0.00,0,weatherlink.com 1.10,2013-02-17 04:04:00,
2013-02-16 20:20:00,47.6,44.0,30.06,SSW,201,0.0,0.0,86,0.00,,,0.00,0,weatherlink.com 1.10,2013-02-17 04:20:00,
2013-02-16 20:34:00,47.4,43.0,30.06,SSW,201,0.0,0.0,86,0.00,,,0.00,0,weatherlink.com 1.10,2013-02-17 04:34:00,
2013-02-16 20:50:00,47.5,44.0,30.06,SSW,201,0.0,0.0,87,0.00,,,0.00,0,weatherlink.com 1.10,2013-02-17 04:50:00,
2013-02-16 21:04:00,46.1,43.0,30.06,SSW,201,0.0,1.0,88,0.00,,,0.00,0,weatherlink.com 1.10,2013-02-17 05:04:00,
2013-02-16 21:19:00,45.4,42.0,30.06,SSW,201,0.0,0.0,89,0.00,,,0.00,0,weatherlink.com 1.10,2013-02-17 05:19:00,
2013-02-16 21:34:00,44.7,42.0,30.06,SSW,201,0.0,0.0,91,0.00,,,0.00,0,weatherlink.com 1.10,2013-02-17 05:34:00,
2013-02-16 21:49:00,44.1,41.0,30.07,SSW,201,0.0,0.0,90,0.00,,,0.00,0,weatherlink.com 1.10,2013-02-17 05:49:00,
2013-02-16 22:05:00,44.2,42.0,30.06,SSW,201,0.0,0.0,92,0.00,,,0.00,0,weatherlink.com 1.10,2013-02-17 06:05:00,
2013-02-16 22:20:00,43.6,42.0,30.06,SSW,201,0.0,0.0,92,0.00,,,0.00,0,weatherlink.com 1.10,2013-02-17 06:20:00,
2013-02-16 22:35:00,43.2,41.0,30.06,SSW,201,0.0,0.0,92,0.00,,,0.00,0,weatherlink.com 1.10,2013-02-17 06:35:00,
2013-02-16 22:50:00,43.1,41.0,30.06,SSW,201,0.0,1.0,93,0.00,,,0.00,0,weatherlink.com 1.10,2013-02-17 06:50:00,
2013-02-16 23:05:00,43.4,42.0,30.05,SSW,201,0.0,0.0,93,0.00,,,0.00,0,weatherlink.com 1.10,2013-02-17 07:05:00,
2013-02-16 23:20:00,41.7,40.0,30.05,SSW,201,0.0,0.0,92,0.00,,,0.00,0,weatherlink.com 1.10,2013-02-17 07:20:00,
2013-02-16 23:35:00,42.2,40.0,30.05,SSW,201,0.0,0.0,93,0.00,,,0.00,0,weatherlink.com 1.10,2013-02-17 07:35:00,
2013-02-16 23:50:00,42.0,40.0,30.04,SSW,201,0.0,0.0,93,0.00,,,0.00,0,weatherlink.com 1.10,2013-02-17 07:50:00,